Time;durP1;ratioP1;P1;durP2;ratioP2;P2;SDS_P1;SDS_P2;PMS_P1;PMS_P2;Temp;Humidity;BMP_temperature;BMP_pressure;BME280_temperature;BME280_humidity;BME280_pressure;Samples;Min_cycle;Max_cycle;Signal;HPM_P1;HPM_P2
2024/02/11 00:00:27;;;;;;;7.00;3.35;;;;;;;;;;2068080;28;20026;-74
2024/02/11 00:01:46;;;;;;;8.02;3.72;;;;;;;;;;2057632;28;20023;-75
2024/02/11 00:03:05;;;;;;;7.32;3.13;;;;;;;;;;2064087;28;20025;-74
2024/02/11 00:04:24;;;;;;;7.68;3.40;;;;;;;;;;2065484;28;20112;-75
2024/02/11 00:05:44;;;;;;;6.13;3.47;;;;;;;;;;2066651;28;20109;-74
2024/02/11 00:07:03;;;;;;;7.65;3.90;;;;;;;;;;2060764;28;20413;-75
2024/02/11 00:08:25;;;;;;;6.50;3.58;;;;;;;;;;2064471;28;20185;-75
2024/02/11 00:09:44;;;;;;;5.13;3.92;;;;;;;;;;2067458;28;20022;-75
2024/02/11 00:11:04;;;;;;;4.50;3.60;;;;;;;;;;2067238;28;20038;-75
2024/02/11 00:12:23;;;;;;;4.85;3.65;;;;;;;;;;2066298;28;20042;-76
2024/02/11 00:13:42;;;;;;;6.30;3.35;;;;;;;;;;2066640;28;20033;-74
2024/02/11 00:15:03;;;;;;;6.25;4.10;;;;;;;;;;2065331;28;20034;-76
2024/02/11 00:16:23;;;;;;;6.97;4.18;;;;;;;;;;2067093;28;20030;-75
2024/02/11 00:17:46;;;;;;;8.75;3.35;;;;;;;;;;2065693;28;20034;-74
2024/02/11 00:19:06;;;;;;;5.47;3.30;;;;;;;;;;2066029;28;20066;-76
2024/02/11 00:20:27;;;;;;;5.50;3.75;;;;;;;;;;2067139;28;20027;-76
2024/02/11 00:21:47;;;;;;;6.13;3.70;;;;;;;;;;2066356;28;20018;-75
2024/02/11 00:23:06;;;;;;;5.82;3.70;;;;;;;;;;2067093;28;20039;-75
2024/02/11 00:24:29;;;;;;;6.80;3.67;;;;;;;;;;2067548;28;20019;-75
2024/02/11 00:25:51;;;;;;;5.32;3.92;;;;;;;;;;2058857;28;20113;-76
2024/02/11 00:27:12;;;;;;;5.70;3.65;;;;;;;;;;2064008;28;20117;-75
2024/02/11 00:28:31;;;;;;;5.90;3.55;;;;;;;;;;2057541;28;20026;-75
2024/02/11 00:29:51;;;;;;;4.72;3.47;;;;;;;;;;2063226;28;20131;-75
2024/02/11 00:31:11;;;;;;;7.85;3.65;;;;;;;;;;2066005;28;20030;-75
2024/02/11 00:32:30;;;;;;;8.45;3.45;;;;;;;;;;2066186;28;20035;-76
2024/02/11 00:33:49;;;;;;;7.32;3.90;;;;;;;;;;2059827;28;20070;-76
2024/02/11 00:35:08;;;;;;;5.53;3.80;;;;;;;;;;2063170;28;20038;-75
2024/02/11 00:36:27;;;;;;;6.88;4.07;;;;;;;;;;2067206;28;20568;-75
2024/02/11 00:37:46;;;;;;;4.97;3.20;;;;;;;;;;2064828;28;20039;-74
2024/02/11 00:39:05;;;;;;;8.10;3.63;;;;;;;;;;2066631;28;20054;-75
2024/02/11 00:40:24;;;;;;;6.47;4.40;;;;;;;;;;2066990;28;20621;-75
2024/02/11 00:41:43;;;;;;;5.25;3.80;;;;;;;;;;2066737;28;20058;-75
2024/02/11 00:43:03;;;;;;;8.10;3.55;;;;;;;;;;2066584;28;20481;-75
2024/02/11 00:44:22;;;;;;;5.55;4.03;;;;;;;;;;2056846;28;20031;-76
2024/02/11 00:45:41;;;;;;;6.40;4.35;;;;;;;;;;2062711;28;20489;-74
2024/02/11 00:47:01;;;;;;;5.10;3.72;;;;;;;;;;2068414;28;20121;-75
2024/02/11 00:48:20;;;;;;;6.60;4.07;;;;;;;;;;2066762;28;20030;-75
2024/02/11 00:49:38;;;;;;;6.35;4.30;;;;;;;;;;2066124;28;20030;-75
2024/02/11 00:50:57;;;;;;;7.47;3.80;;;;;;;;;;2065734;28;20509;-75
2024/02/11 00:52:16;;;;;;;5.30;3.67;;;;;;;;;;2066725;28;20047;-75
2024/02/11 00:53:36;;;;;;;7.20;3.63;;;;;;;;;;2064967;28;20035;-75
2024/02/11 00:54:55;;;;;;;5.28;3.50;;;;;;;;;;2069130;28;20484;-75
2024/02/11 00:56:15;;;;;;;6.90;4.15;;;;;;;;;;2075411;28;20029;-75
2024/02/11 00:57:36;;;;;;;5.13;3.67;;;;;;;;;;2075495;28;20025;-75
2024/02/11 00:58:56;;;;;;;5.35;3.90;;;;;;;;;;2058023;28;20526;-75
2024/02/11 01:00:17;;;;;;;6.07;3.97;;;;;;;;;;2068635;28;20061;-75
2024/02/11 01:01:40;;;;;;;4.35;3.88;;;;;;;;;;2074364;28;20013;-76
2024/02/11 01:02:59;;;;;;;6.35;4.43;;;;;;;;;;2075136;28;20493;-74
2024/02/11 01:04:18;;;;;;;4.53;3.75;;;;;;;;;;2075390;28;20042;-76
2024/02/11 01:05:37;;;;;;;4.95;3.97;;;;;;;;;;2074609;28;20419;-75
2024/02/11 01:06:57;;;;;;;6.95;4.00;;;;;;;;;;2074590;28;20038;-75
2024/02/11 01:08:16;;;;;;;9.07;4.28;;;;;;;;;;2074783;28;20025;-75
2024/02/11 01:09:36;;;;;;;9.30;4.82;;;;;;;;;;2074390;28;20070;-75
2024/02/11 01:10:54;;;;;;;7.90;3.63;;;;;;;;;;2053460;28;20514;-75
2024/02/11 01:12:13;;;;;;;5.53;3.88;;;;;;;;;;2067290;28;20041;-75
2024/02/11 01:13:32;;;;;;;7.00;3.97;;;;;;;;;;2076841;28;20026;-75
2024/02/11 01:14:55;;;;;;;9.55;5.10;;;;;;;;;;2076343;28;20454;-76
2024/02/11 01:16:15;;;;;;;6.80;3.63;;;;;;;;;;2075329;28;20030;-74
2024/02/11 01:17:34;;;;;;;4.47;3.97;;;;;;;;;;2076554;28;20112;-75
2024/02/11 01:18:53;;;;;;;6.78;4.28;;;;;;;;;;2077333;28;20030;-75
2024/02/11 01:20:13;;;;;;;4.28;3.90;;;;;;;;;;2076877;28;20064;-75
2024/02/11 01:21:32;;;;;;;4.45;4.03;;;;;;;;;;2066870;28;20034;-75
2024/02/11 01:22:54;;;;;;;8.98;4.85;;;;;;;;;;2072356;28;20109;-74
2024/02/11 01:24:14;;;;;;;4.93;4.28;;;;;;;;;;2069178;28;20405;-75
2024/02/11 01:25:33;;;;;;;5.65;4.18;;;;;;;;;;2072496;28;20392;-74
2024/02/11 01:26:53;;;;;;;8.57;4.63;;;;;;;;;;2068246;28;20043;-75
2024/02/11 01:28:12;;;;;;;8.77;4.32;;;;;;;;;;2073642;28;20029;-75
2024/02/11 01:29:31;;;;;;;7.55;4.10;;;;;;;;;;2076449;28;20030;-74
2024/02/11 01:30:50;;;;;;;5.10;4.60;;;;;;;;;;2067757;28;20036;-75
2024/02/11 01:32:09;;;;;;;8.80;5.03;;;;;;;;;;2072346;28;20029;-76
2024/02/11 01:33:28;;;;;;;8.65;4.40;;;;;;;;;;2068299;28;20549;-75
2024/02/11 01:34:47;;;;;;;8.75;4.57;;;;;;;;;;2073264;28;20033;-74
2024/02/11 01:36:07;;;;;;;6.20;4.60;;;;;;;;;;2075598;28;20022;-74
2024/02/11 01:37:26;;;;;;;7.78;4.53;;;;;;;;;;2076998;28;20133;-75
2024/02/11 01:38:45;;;;;;;7.90;4.22;;;;;;;;;;2077868;28;20029;-75
2024/02/11 01:40:06;;;;;;;6.00;4.15;;;;;;;;;;2075488;28;20025;-74
2024/02/11 01:41:25;;;;;;;4.25;3.85;;;;;;;;;;2074684;28;20025;-75
2024/02/11 01:42:46;;;;;;;6.93;4.28;;;;;;;;;;2066529;28;20037;-74
2024/02/11 01:44:05;;;;;;;5.93;4.40;;;;;;;;;;2073209;28;20042;-75
2024/02/11 01:45:25;;;;;;;7.43;5.05;;;;;;;;;;2077479;28;20022;-74
2024/02/11 01:46:45;;;;;;;7.63;4.60;;;;;;;;;;2076921;28;20034;-74
2024/02/11 01:48:05;;;;;;;10.65;5.15;;;;;;;;;;2077165;28;20021;-74
2024/02/11 01:49:24;;;;;;;9.25;4.70;;;;;;;;;;2075659;28;20034;-74
2024/02/11 01:50:43;;;;;;;7.88;4.60;;;;;;;;;;2076587;28;20041;-74
2024/02/11 01:52:05;;;;;;;11.98;4.75;;;;;;;;;;2076020;28;20052;-74
2024/02/11 01:53:25;;;;;;;7.25;4.50;;;;;;;;;;2075420;28;20033;-74
2024/02/11 01:54:44;;;;;;;9.40;4.80;;;;;;;;;;2076398;28;20068;-74
2024/02/11 01:56:05;;;;;;;6.88;4.40;;;;;;;;;;2076641;28;20045;-75
2024/02/11 01:57:24;;;;;;;10.70;4.85;;;;;;;;;;2064938;28;20030;-74
2024/02/11 01:58:43;;;;;;;6.50;3.95;;;;;;;;;;2073486;28;20022;-74
2024/02/11 02:00:04;;;;;;;5.13;4.43;;;;;;;;;;2077267;28;20029;-75
2024/02/11 02:01:27;;;;;;;6.40;4.63;;;;;;;;;;2076964;28;20050;-74
2024/02/11 02:02:49;;;;;;;8.38;4.78;;;;;;;;;;2075049;28;20021;-75
2024/02/11 02:04:09;;;;;;;6.80;4.57;;;;;;;;;;2059696;28;20034;-74
2024/02/11 02:05:28;;;;;;;4.57;4.00;;;;;;;;;;2068703;28;20026;-74
2024/02/11 02:06:47;;;;;;;6.20;4.70;;;;;;;;;;2076601;28;20025;-74
2024/02/11 02:08:08;;;;;;;5.63;4.28;;;;;;;;;;2076178;28;20029;-75
2024/02/11 02:09:30;;;;;;;6.20;4.60;;;;;;;;;;2075918;28;20022;-75
2024/02/11 02:10:49;;;;;;;7.70;4.20;;;;;;;;;;2066446;28;20038;-73
2024/02/11 02:12:08;;;;;;;7.40;4.40;;;;;;;;;;2071926;28;20041;-75
2024/02/11 02:13:27;;;;;;;5.82;4.30;;;;;;;;;;2076638;28;20037;-74
2024/02/11 02:14:47;;;;;;;4.80;4.07;;;;;;;;;;2076121;28;20559;-76
2024/02/11 02:16:09;;;;;;;7.55;4.65;;;;;;;;;;2076069;28;20080;-74
2024/02/11 02:17:28;;;;;;;7.13;4.68;;;;;;;;;;2074166;28;20377;-74
2024/02/11 02:18:51;;;;;;;8.35;4.38;;;;;;;;;;2075299;28;20294;-74
2024/02/11 02:20:10;;;;;;;5.97;4.53;;;;;;;;;;2075317;28;20477;-75
2024/02/11 02:21:30;;;;;;;8.55;4.65;;;;;;;;;;2076831;28;20038;-74
2024/02/11 02:22:49;;;;;;;6.35;4.32;;;;;;;;;;2075904;28;20029;-74
2024/02/11 02:24:08;;;;;;;8.00;4.60;;;;;;;;;;2061343;28;20035;-75
2024/02/11 02:25:27;;;;;;;6.40;4.25;;;;;;;;;;2066404;28;20018;-75
2024/02/11 02:26:46;;;;;;;7.22;4.43;;;;;;;;;;2076042;28;20196;-73
2024/02/11 02:28:05;;;;;;;5.32;4.28;;;;;;;;;;2066970;28;20113;-74
2024/02/11 02:29:24;;;;;;;6.60;3.80;;;;;;;;;;2068301;28;20065;-75
2024/02/11 02:30:43;;;;;;;8.88;4.28;;;;;;;;;;2067202;28;20042;-75
2024/02/11 02:32:03;;;;;;;7.05;4.57;;;;;;;;;;2072423;28;20496;-75
2024/02/11 02:33:21;;;;;;;6.00;4.15;;;;;;;;;;2076769;28;20069;-74
2024/02/11 02:34:41;;;;;;;9.13;4.68;;;;;;;;;;2075957;28;20026;-74
2024/02/11 02:36:01;;;;;;;9.00;4.57;;;;;;;;;;2076828;28;20033;-74
2024/02/11 02:37:23;;;;;;;6.50;4.60;;;;;;;;;;2075271;28;20038;-74
2024/02/11 02:38:42;;;;;;;5.45;4.03;;;;;;;;;;2076521;28;20018;-75
2024/02/11 02:40:00;;;;;;;10.15;4.72;;;;;;;;;;2076051;28;20049;-74
2024/02/11 02:41:19;;;;;;;6.65;4.03;;;;;;;;;;2075518;28;20404;-74
2024/02/11 02:42:38;;;;;;;8.63;4.80;;;;;;;;;;2075976;28;20034;-74
2024/02/11 02:43:57;;;;;;;5.00;4.47;;;;;;;;;;2075778;28;20042;-74
2024/02/11 02:45:16;;;;;;;6.82;4.82;;;;;;;;;;2074043;28;20143;-74
2024/02/11 02:46:35;;;;;;;10.35;4.38;;;;;;;;;;2076285;28;20500;-73
2024/02/11 02:47:54;;;;;;;4.88;4.40;;;;;;;;;;2075487;28;20030;-74
2024/02/11 02:49:13;;;;;;;7.53;5.30;;;;;;;;;;2075631;28;20060;-74
2024/02/11 02:50:32;;;;;;;6.93;4.40;;;;;;;;;;2075835;28;20033;-74
2024/02/11 02:51:51;;;;;;;5.68;4.53;;;;;;;;;;2075410;28;20034;-74
2024/02/11 02:53:11;;;;;;;7.75;4.45;;;;;;;;;;2075399;28;20043;-76
2024/02/11 02:54:29;;;;;;;4.88;3.97;;;;;;;;;;2076394;28;20076;-75
2024/02/11 02:55:48;;;;;;;4.72;4.30;;;;;;;;;;2075970;28;20045;-73
2024/02/11 02:57:07;;;;;;;8.27;4.50;;;;;;;;;;2075705;28;20053;-75
2024/02/11 02:58:26;;;;;;;4.68;4.05;;;;;;;;;;2064203;28;20026;-75
2024/02/11 02:59:45;;;;;;;8.27;4.65;;;;;;;;;;2068764;28;20030;-75
2024/02/11 03:01:05;;;;;;;7.57;4.43;;;;;;;;;;2073867;28;20022;-75
2024/02/11 03:02:27;;;;;;;8.05;3.92;;;;;;;;;;2076643;28;20489;-74
2024/02/11 03:03:49;;;;;;;6.38;4.55;;;;;;;;;;2075020;28;20026;-75
2024/02/11 03:05:08;;;;;;;9.18;4.03;;;;;;;;;;2075878;28;20033;-74
2024/02/11 03:06:28;;;;;;;7.32;4.60;;;;;;;;;;2076356;28;20435;-75
2024/02/11 03:07:48;;;;;;;14.70;4.50;;;;;;;;;;2060021;28;20118;-74
2024/02/11 03:09:08;;;;;;;7.30;4.68;;;;;;;;;;2063982;28;20469;-75
2024/02/11 03:10:27;;;;;;;8.98;4.32;;;;;;;;;;2068309;28;20038;-74
2024/02/11 03:11:49;;;;;;;7.70;4.47;;;;;;;;;;2075599;28;20030;-72
2024/02/11 03:13:08;;;;;;;5.50;3.90;;;;;;;;;;2075326;28;20108;-73
2024/02/11 03:14:31;;;;;;;7.43;4.18;;;;;;;;;;2075006;28;20424;-73
2024/02/11 03:15:50;;;;;;;8.05;4.68;;;;;;;;;;2075814;28;20017;-73
2024/02/11 03:17:09;;;;;;;5.35;4.10;;;;;;;;;;2075137;28;20089;-73
2024/02/11 03:18:28;;;;;;;6.18;4.35;;;;;;;;;;2073220;28;20436;-73
2024/02/11 03:19:47;;;;;;;8.30;4.25;;;;;;;;;;2076192;28;20221;-74
2024/02/11 03:21:06;;;;;;;6.93;4.25;;;;;;;;;;2076442;28;20118;-73
2024/02/11 03:22:26;;;;;;;5.85;4.03;;;;;;;;;;2073624;28;20045;-72
2024/02/11 03:23:45;;;;;;;6.90;4.38;;;;;;;;;;2074940;28;20021;-73
2024/02/11 03:25:04;;;;;;;6.07;4.35;;;;;;;;;;2074622;28;20441;-74
2024/02/11 03:26:23;;;;;;;5.20;3.95;;;;;;;;;;2075183;28;20025;-72
2024/02/11 03:27:41;;;;;;;6.82;4.50;;;;;;;;;;2076131;28;20096;-73
2024/02/11 03:29:00;;;;;;;7.03;4.60;;;;;;;;;;2065573;28;20035;-74
2024/02/11 03:30:21;;;;;;;5.40;4.60;;;;;;;;;;2065782;28;20105;-74
2024/02/11 03:31:41;;;;;;;7.13;4.65;;;;;;;;;;2072491;28;20025;-73
2024/02/11 03:33:00;;;;;;;5.25;3.97;;;;;;;;;;2074715;28;20065;-72
2024/02/11 03:34:19;;;;;;;9.75;5.68;;;;;;;;;;2067301;28;20021;-73
2024/02/11 03:35:38;;;;;;;5.95;4.32;;;;;;;;;;2062675;28;20177;-73
2024/02/11 03:36:57;;;;;;;7.65;4.82;;;;;;;;;;2072021;28;20029;-73
2024/02/11 03:38:18;;;;;;;5.35;4.25;;;;;;;;;;2058111;28;20058;-73
2024/02/11 03:39:36;;;;;;;9.18;4.80;;;;;;;;;;2059970;28;20034;-73
2024/02/11 03:40:56;;;;;;;5.15;4.32;;;;;;;;;;2070737;28;20038;-74
2024/02/11 03:42:15;;;;;;;4.80;4.20;;;;;;;;;;2075064;28;20452;-73
2024/02/11 03:43:34;;;;;;;9.43;4.50;;;;;;;;;;2076874;28;20033;-72
2024/02/11 03:44:52;;;;;;;8.77;5.68;;;;;;;;;;2075335;28;20045;-73
2024/02/11 03:46:11;;;;;;;7.70;4.30;;;;;;;;;;2075649;28;20026;-74
2024/02/11 03:47:31;;;;;;;4.97;4.47;;;;;;;;;;2074934;28;20116;-73
2024/02/11 03:48:50;;;;;;;8.10;4.75;;;;;;;;;;2075802;28;20104;-73
2024/02/11 03:50:15;;;;;;;8.88;5.68;;;;;;;;;;2066679;28;20072;-73
2024/02/11 03:51:34;;;;;;;10.30;4.75;;;;;;;;;;2072072;28;20066;-73
2024/02/11 03:52:53;;;;;;;7.00;4.80;;;;;;;;;;2074729;28;20034;-74
2024/02/11 03:54:12;;;;;;;5.38;4.20;;;;;;;;;;2068389;28;20398;-72
2024/02/11 03:55:31;;;;;;;7.40;4.40;;;;;;;;;;2063817;28;20047;-72
2024/02/11 03:56:51;;;;;;;8.27;4.90;;;;;;;;;;2062274;28;20034;-72
2024/02/11 03:58:10;;;;;;;7.72;4.55;;;;;;;;;;2070862;28;20108;-73
2024/02/11 03:59:29;;;;;;;7.47;5.07;;;;;;;;;;2075727;28;20025;-74
2024/02/11 04:00:48;;;;;;;14.02;4.35;;;;;;;;;;2067535;28;20030;-73
2024/02/11 04:02:06;;;;;;;6.70;4.57;;;;;;;;;;2072591;28;20065;-73
2024/02/11 04:03:25;;;;;;;9.13;5.03;;;;;;;;;;2074238;28;20029;-74
2024/02/11 04:04:45;;;;;;;6.82;4.32;;;;;;;;;;2074029;28;20021;-73
2024/02/11 04:06:05;;;;;;;6.57;4.57;;;;;;;;;;2075007;28;20113;-72
2024/02/11 04:07:25;;;;;;;6.60;4.68;;;;;;;;;;2065465;28;20038;-72
2024/02/11 04:08:44;;;;;;;5.25;4.20;;;;;;;;;;2071474;28;20064;-73
2024/02/11 04:10:17;;;;;;;7.15;4.05;;;;;;;;;;2072180;28;20034;-71
2024/02/11 04:11:36;;;;;;;4.55;3.28;;;;;;;;;;2067027;28;20034;-73
2024/02/11 04:12:58;;;;;;;5.50;4.53;;;;;;;;;;2070356;28;20021;-74
2024/02/11 04:14:20;;;;;;;7.60;4.53;;;;;;;;;;2073499;28;20034;-72
2024/02/11 04:15:41;;;;;;;7.15;4.78;;;;;;;;;;2074703;28;20500;-73
2024/02/11 04:17:02;;;;;;;5.70;4.88;;;;;;;;;;2072941;28;20069;-73
2024/02/11 04:18:25;;;;;;;6.32;4.28;;;;;;;;;;2076154;28;20030;-74
2024/02/11 04:19:44;;;;;;;5.63;4.47;;;;;;;;;;2074344;28;20061;-73
2024/02/11 04:21:04;;;;;;;8.65;4.78;;;;;;;;;;2073063;28;20030;-73
2024/02/11 04:22:25;;;;;;;6.88;4.70;;;;;;;;;;2065308;28;20034;-75
2024/02/11 04:23:46;;;;;;;4.80;4.40;;;;;;;;;;2072019;28;20400;-75
2024/02/11 04:25:07;;;;;;;6.55;4.22;;;;;;;;;;2075395;28;20030;-75
2024/02/11 04:26:26;;;;;;;8.30;4.28;;;;;;;;;;2064540;28;20031;-75
2024/02/11 04:27:46;;;;;;;7.18;4.65;;;;;;;;;;2070003;28;20034;-75
2024/02/11 04:29:04;;;;;;;6.78;4.75;;;;;;;;;;2075367;28;20025;-75
2024/02/11 04:30:24;;;;;;;5.05;4.30;;;;;;;;;;2075066;28;20113;-74
2024/02/11 04:31:43;;;;;;;6.15;4.43;;;;;;;;;;2066454;28;20083;-75
2024/02/11 04:33:05;;;;;;;7.88;4.43;;;;;;;;;;2069418;28;20038;-74
2024/02/11 04:34:24;;;;;;;6.18;4.22;;;;;;;;;;2075036;28;20108;-75
2024/02/11 04:35:43;;;;;;;7.57;4.55;;;;;;;;;;2075895;28;20013;-74
2024/02/11 04:37:04;;;;;;;5.03;4.10;;;;;;;;;;2075278;28;20033;-74
2024/02/11 04:38:24;;;;;;;6.95;4.43;;;;;;;;;;2074200;28;20033;-74
2024/02/11 04:39:43;;;;;;;7.43;4.22;;;;;;;;;;2074297;28;20038;-75
2024/02/11 04:41:04;;;;;;;5.63;4.22;;;;;;;;;;2073412;28;20034;-75
2024/02/11 04:42:23;;;;;;;4.80;4.15;;;;;;;;;;2074896;28;20021;-75
2024/02/11 04:43:44;;;;;;;6.03;4.30;;;;;;;;;;2076097;28;20026;-75
2024/02/11 04:45:05;;;;;;;5.07;4.35;;;;;;;;;;2075205;28;20029;-75
2024/02/11 04:46:23;;;;;;;7.95;4.13;;;;;;;;;;2073270;28;20019;-75
2024/02/11 04:47:46;;;;;;;5.60;3.92;;;;;;;;;;2074309;28;20492;-75
2024/02/11 04:49:07;;;;;;;4.60;4.20;;;;;;;;;;2068129;28;20038;-75
2024/02/11 04:50:27;;;;;;;4.95;4.20;;;;;;;;;;2072508;28;20025;-75
2024/02/11 04:51:48;;;;;;;7.55;4.75;;;;;;;;;;2075679;28;20026;-74
2024/02/11 04:53:09;;;;;;;5.43;4.07;;;;;;;;;;2073899;28;20031;-76
2024/02/11 04:54:28;;;;;;;5.15;4.65;;;;;;;;;;2074139;28;20037;-75
2024/02/11 04:55:50;;;;;;;5.68;4.18;;;;;;;;;;2060862;28;20035;-75
2024/02/11 04:57:10;;;;;;;7.13;4.28;;;;;;;;;;2068995;28;20022;-75
2024/02/11 04:58:31;;;;;;;5.60;4.28;;;;;;;;;;2074941;28;20484;-76
2024/02/11 04:59:51;;;;;;;9.70;4.22;;;;;;;;;;2073896;28;20022;-74
2024/02/11 05:01:10;;;;;;;6.47;4.40;;;;;;;;;;2074462;28;20026;-75
2024/02/11 05:02:30;;;;;;;6.88;5.38;;;;;;;;;;2073868;28;20022;-75
2024/02/11 05:03:49;;;;;;;6.07;4.43;;;;;;;;;;2066742;28;20471;-75
2024/02/11 05:05:08;;;;;;;8.20;4.82;;;;;;;;;;2071147;28;20481;-74
2024/02/11 05:06:27;;;;;;;5.50;4.50;;;;;;;;;;2073669;28;20393;-74
2024/02/11 05:07:47;;;;;;;5.25;4.43;;;;;;;;;;2075340;28;20108;-74
2024/02/11 05:09:07;;;;;;;6.50;4.53;;;;;;;;;;2073666;28;20041;-74
2024/02/11 05:10:27;;;;;;;9.73;4.90;;;;;;;;;;2074303;28;20018;-74
2024/02/11 05:11:46;;;;;;;5.70;4.97;;;;;;;;;;2075865;28;20025;-75
2024/02/11 05:13:05;;;;;;;8.13;4.25;;;;;;;;;;2074400;28;20105;-76
2024/02/11 05:14:26;;;;;;;7.55;5.32;;;;;;;;;;2074199;28;20026;-74
2024/02/11 05:15:48;;;;;;;8.15;4.72;;;;;;;;;;2074726;28;20026;-74
2024/02/11 05:17:09;;;;;;;10.00;4.70;;;;;;;;;;2064288;28;20030;-75
2024/02/11 05:18:29;;;;;;;5.88;4.60;;;;;;;;;;2070265;28;20030;-74
2024/02/11 05:19:48;;;;;;;6.35;4.15;;;;;;;;;;2075079;28;20548;-74
2024/02/11 05:21:10;;;;;;;8.30;5.20;;;;;;;;;;2073088;28;20033;-74
2024/02/11 05:22:30;;;;;;;7.60;5.20;;;;;;;;;;2075447;28;20038;-75
2024/02/11 05:23:49;;;;;;;7.93;5.25;;;;;;;;;;2074905;28;20034;-74
2024/02/11 05:25:07;;;;;;;6.63;4.47;;;;;;;;;;2075634;28;20060;-74
2024/02/11 05:26:27;;;;;;;8.18;5.18;;;;;;;;;;2074644;28;20049;-75
2024/02/11 05:27:53;;;;;;;5.40;4.78;;;;;;;;;;2073514;28;20484;-75
2024/02/11 05:29:12;;;;;;;7.03;5.13;;;;;;;;;;2074688;28;20400;-74
2024/02/11 05:30:35;;;;;;;10.45;5.25;;;;;;;;;;2063574;28;20492;-74
2024/02/11 05:31:53;;;;;;;7.55;5.18;;;;;;;;;;2064303;28;20031;-73
2024/02/11 05:33:13;;;;;;;6.80;5.03;;;;;;;;;;2070695;28;20061;-72
2024/02/11 05:34:33;;;;;;;9.07;4.93;;;;;;;;;;2068003;28;20030;-74
2024/02/11 05:35:52;;;;;;;7.38;4.80;;;;;;;;;;2074463;28;20389;-73
2024/02/11 05:37:12;;;;;;;7.88;5.00;;;;;;;;;;2074777;28;20025;-74
2024/02/11 05:38:39;;;;;;;7.00;4.93;;;;;;;;;;2074249;28;20583;-73
2024/02/11 05:39:58;;;;;;;9.50;5.20;;;;;;;;;;2074571;28;20037;-74
2024/02/11 05:41:17;;;;;;;9.40;5.63;;;;;;;;;;2066453;28;20038;-73
2024/02/11 05:42:40;;;;;;;9.77;5.43;;;;;;;;;;2071067;28;20053;-74
2024/02/11 05:43:59;;;;;;;;;;;;;;;;;;2066040;28;20026;-71
2024/02/11 05:45:18;;;;;;;9.02;5.15;;;;;;;;;;2070920;28;19962;-73
2024/02/11 05:46:37;;;;;;;9.18;5.28;;;;;;;;;;2058832;28;20406;-73
2024/02/11 05:47:56;;;;;;;8.80;5.00;;;;;;;;;;2060024;28;20156;-73
2024/02/11 05:49:17;;;;;;;7.63;4.97;;;;;;;;;;2065546;28;20026;-72
2024/02/11 05:50:36;;;;;;;8.75;5.43;;;;;;;;;;2061784;28;20030;-73
2024/02/11 05:51:55;;;;;;;11.02;5.97;;;;;;;;;;2064241;28;20173;-73
2024/02/11 05:53:15;;;;;;;8.35;5.22;;;;;;;;;;2065782;28;20433;-72
2024/02/11 05:54:35;;;;;;;11.23;5.75;;;;;;;;;;2072417;28;20061;-72
2024/02/11 05:55:55;;;;;;;9.55;5.57;;;;;;;;;;2075476;28;20054;-72
2024/02/11 05:57:14;;;;;;;8.98;5.30;;;;;;;;;;2076057;28;20477;-73
2024/02/11 05:58:33;;;;;;;7.40;6.22;;;;;;;;;;2077317;28;20033;-74
2024/02/11 05:59:52;;;;;;;12.45;5.18;;;;;;;;;;2073152;28;20528;-73
2024/02/11 06:01:13;;;;;;;10.88;6.03;;;;;;;;;;2071605;28;20116;-73
2024/02/11 06:02:33;;;;;;;9.40;6.35;;;;;;;;;;2073018;28;20025;-74
2024/02/11 06:03:52;;;;;;;8.70;5.55;;;;;;;;;;2076133;28;20061;-74
2024/02/11 06:05:12;;;;;;;7.07;5.50;;;;;;;;;;2067648;28;20030;-73
2024/02/11 06:06:32;;;;;;;7.68;5.38;;;;;;;;;;2063303;28;20461;-73
2024/02/11 06:07:51;;;;;;;8.13;5.45;;;;;;;;;;2071431;28;20051;-72
2024/02/11 06:09:13;;;;;;;7.60;5.47;;;;;;;;;;2074184;28;20026;-73
2024/02/11 06:10:36;;;;;;;12.35;5.45;;;;;;;;;;2073618;28;20483;-72
2024/02/11 06:11:56;;;;;;;7.70;6.20;;;;;;;;;;2075894;28;20018;-72
2024/02/11 06:13:15;;;;;;;9.40;5.65;;;;;;;;;;2075009;28;20026;-73
2024/02/11 06:14:36;;;;;;;8.68;5.80;;;;;;;;;;2074660;28;20603;-73
2024/02/11 06:15:55;;;;;;;10.25;5.35;;;;;;;;;;2075813;28;20030;-72
2024/02/11 06:17:15;;;;;;;8.77;4.93;;;;;;;;;;2074573;28;20113;-72
2024/02/11 06:18:34;;;;;;;10.02;5.25;;;;;;;;;;2066797;28;20030;-72
2024/02/11 06:19:53;;;;;;;8.43;5.47;;;;;;;;;;2063651;28;20107;-72
2024/02/11 06:21:12;;;;;;;8.98;6.32;;;;;;;;;;2065720;28;20500;-72
2024/02/11 06:22:31;;;;;;;6.47;5.07;;;;;;;;;;2072545;28;20682;-72
2024/02/11 06:23:50;;;;;;;9.02;5.13;;;;;;;;;;2075175;28;20025;-73
2024/02/11 06:25:11;;;;;;;8.07;4.80;;;;;;;;;;2075418;28;20041;-73
2024/02/11 06:26:31;;;;;;;8.52;5.13;;;;;;;;;;2075647;28;20101;-72
2024/02/11 06:27:50;;;;;;;7.00;4.75;;;;;;;;;;2075391;28;20022;-72
2024/02/11 06:29:10;;;;;;;7.30;5.13;;;;;;;;;;2076241;28;20021;-71
2024/02/11 06:30:29;;;;;;;7.47;5.03;;;;;;;;;;2075357;28;20022;-73
2024/02/11 06:31:51;;;;;;;5.25;4.75;;;;;;;;;;2074777;28;20427;-73
2024/02/11 06:33:10;;;;;;;7.75;5.15;;;;;;;;;;2075157;28;20345;-71
2024/02/11 06:34:28;;;;;;;6.70;5.20;;;;;;;;;;2076300;28;20066;-71
2024/02/11 06:35:47;;;;;;;10.48;5.72;;;;;;;;;;2077049;28;20021;-73
2024/02/11 06:37:06;;;;;;;7.15;5.38;;;;;;;;;;2067752;28;20462;-73
2024/02/11 06:38:27;;;;;;;8.05;5.10;;;;;;;;;;2062589;28;20030;-72
2024/02/11 06:39:46;;;;;;;7.53;5.60;;;;;;;;;;2063213;28;20498;-73
2024/02/11 06:41:06;;;;;;;6.80;5.20;;;;;;;;;;2069216;28;20034;-72
2024/02/11 06:42:26;;;;;;;6.13;5.20;;;;;;;;;;2074638;28;20113;-74
2024/02/11 06:43:45;;;;;;;8.35;5.75;;;;;;;;;;2076979;28;20100;-75
2024/02/11 06:45:06;;;;;;;6.90;5.03;;;;;;;;;;2074926;28;20112;-74
2024/02/11 06:46:25;;;;;;;7.75;5.07;;;;;;;;;;2073947;28;20021;-75
2024/02/11 06:47:46;;;;;;;9.90;5.80;;;;;;;;;;2075257;28;20144;-74
2024/02/11 06:49:06;;;;;;;9.75;5.60;;;;;;;;;;2075625;28;20101;-75
2024/02/11 06:50:26;;;;;;;6.05;5.18;;;;;;;;;;2068102;28;20030;-75
2024/02/11 06:51:45;;;;;;;9.82;5.15;;;;;;;;;;2072758;28;20021;-75
2024/02/11 06:53:06;;;;;;;9.60;5.30;;;;;;;;;;2075744;28;20029;-74
2024/02/11 06:54:27;;;;;;;7.60;5.00;;;;;;;;;;2074521;28;20657;-75
2024/02/11 06:55:47;;;;;;;7.00;5.32;;;;;;;;;;2066044;28;20038;-74
2024/02/11 06:57:05;;;;;;;6.15;5.32;;;;;;;;;;2072016;28;20029;-75
2024/02/11 06:58:24;;;;;;;7.47;5.05;;;;;;;;;;2061092;28;20038;-75
2024/02/11 06:59:43;;;;;;;9.05;5.57;;;;;;;;;;2069332;28;20485;-74
2024/02/11 07:01:10;;;;;;;6.57;4.82;;;;;;;;;;2063377;28;20030;-74
2024/02/11 07:02:34;;;;;;;9.90;5.35;;;;;;;;;;2070896;28;20033;-75
2024/02/11 07:03:53;;;;;;;8.45;5.00;;;;;;;;;;2073846;28;20496;-74
2024/02/11 07:05:12;;;;;;;7.50;5.72;;;;;;;;;;2075151;28;20029;-73
2024/02/11 07:06:33;;;;;;;6.57;5.03;;;;;;;;;;2076818;28;20025;-75
2024/02/11 07:07:52;;;;;;;5.88;4.97;;;;;;;;;;2074416;28;20022;-75
2024/02/11 07:09:11;;;;;;;7.68;5.38;;;;;;;;;;2075108;28;20033;-74
2024/02/11 07:10:30;;;;;;;6.90;5.00;;;;;;;;;;2066507;28;20509;-75
2024/02/11 07:11:49;;;;;;;8.82;5.25;;;;;;;;;;2067341;28;20042;-74
2024/02/11 07:13:08;;;;;;;6.68;5.40;;;;;;;;;;2071643;28;20034;-74
2024/02/11 07:14:27;;;;;;;6.45;5.20;;;;;;;;;;2074618;28;20037;-75
2024/02/11 07:15:46;;;;;;;5.40;4.90;;;;;;;;;;2074035;28;20057;-74
2024/02/11 07:17:05;;;;;;;6.53;5.30;;;;;;;;;;2073988;28;20501;-74
2024/02/11 07:18:24;;;;;;;6.53;5.28;;;;;;;;;;2072967;28;20069;-74
2024/02/11 07:19:43;;;;;;;7.90;5.32;;;;;;;;;;2073422;28;20049;-74
2024/02/11 07:21:02;;;;;;;6.63;4.88;;;;;;;;;;2075317;28;20169;-75
2024/02/11 07:22:21;;;;;;;7.20;5.60;;;;;;;;;;2074206;28;20045;-74
2024/02/11 07:23:41;;;;;;;8.93;5.45;;;;;;;;;;2076440;28;20481;-74
2024/02/11 07:25:01;;;;;;;7.28;4.88;;;;;;;;;;2075699;28;20037;-75
2024/02/11 07:26:20;;;;;;;6.22;5.40;;;;;;;;;;2067692;28;20472;-74
2024/02/11 07:27:39;;;;;;;6.63;5.28;;;;;;;;;;2072143;28;20029;-74
2024/02/11 07:28:59;;;;;;;7.38;5.53;;;;;;;;;;2066570;28;20026;-74
2024/02/11 07:30:19;;;;;;;7.97;5.40;;;;;;;;;;2066924;28;20038;-74
2024/02/11 07:31:38;;;;;;;9.98;5.50;;;;;;;;;;2064528;28;20026;-74
2024/02/11 07:32:57;;;;;;;7.40;5.57;;;;;;;;;;2069930;28;20033;-74
2024/02/11 07:34:16;;;;;;;8.48;5.68;;;;;;;;;;2075390;28;20034;-73
2024/02/11 07:35:36;;;;;;;7.85;6.00;;;;;;;;;;2075406;28;20054;-73
2024/02/11 07:36:55;;;;;;;8.63;5.60;;;;;;;;;;2073688;28;20030;-74
2024/02/11 07:38:14;;;;;;;6.97;5.25;;;;;;;;;;2073428;28;20401;-74
2024/02/11 07:39:33;;;;;;;7.65;5.88;;;;;;;;;;2066497;28;20039;-74
2024/02/11 07:40:53;;;;;;;10.25;5.13;;;;;;;;;;2069936;28;20030;-75
2024/02/11 07:42:12;;;;;;;8.52;5.75;;;;;;;;;;2073379;28;20029;-75
2024/02/11 07:43:32;;;;;;;7.53;5.35;;;;;;;;;;2074275;28;20018;-74
2024/02/11 07:44:51;;;;;;;9.32;5.18;;;;;;;;;;2074757;28;20022;-76
2024/02/11 07:46:11;;;;;;;11.88;5.47;;;;;;;;;;2073730;28;20424;-76
2024/02/11 07:47:30;;;;;;;7.97;5.50;;;;;;;;;;2066034;28;20025;-74
2024/02/11 07:48:49;;;;;;;7.25;5.57;;;;;;;;;;2069970;28;20030;-76
2024/02/11 07:50:14;;;;;;;10.10;5.57;;;;;;;;;;2065549;28;20034;-75
2024/02/11 07:51:34;;;;;;;9.25;5.80;;;;;;;;;;2070621;28;20030;-75
2024/02/11 07:52:55;;;;;;;9.30;5.80;;;;;;;;;;2075005;28;20485;-75
2024/02/11 07:54:14;;;;;;;9.02;6.13;;;;;;;;;;2068748;28;20033;-76
2024/02/11 07:55:34;;;;;;;8.02;5.80;;;;;;;;;;2059232;28;20050;-74
2024/02/11 07:56:53;;;;;;;9.32;5.40;;;;;;;;;;2060016;28;20030;-75
2024/02/11 07:58:13;;;;;;;11.30;6.15;;;;;;;;;;2071874;28;20034;-74